Time;durP1;ratioP1;P1;durP2;ratioP2;P2;SDS_P1;SDS_P2;PMS_P1;PMS_P2;Temp;Humidity;BMP_temperature;BMP_pressure;BME280_temperature;BME280_humidity;BME280_pressure;Samples;Min_cycle;Max_cycle;Signal;HPM_P1;HPM_P2
2023/01/10 00:01:28;;;;;;;45.35;9.02;;;;;;;3.41;100.00;101135.88;5054428;28;20035;-49
2023/01/10 00:03:53;;;;;;;40.45;9.23;;;;;;;3.39;100.00;101135.78;5055192;28;20115;-49
2023/01/10 00:06:19;;;;;;;43.80;8.43;;;;;;;3.37;100.00;101146.66;5054066;28;20041;-49
2023/01/10 00:08:44;;;;;;;40.83;9.35;;;;;;;3.42;100.00;101150.38;5054724;28;20056;-49
2023/01/10 00:13:55;;;;;;;45.72;9.15;;;;;;;3.43;100.00;101153.03;5054861;28;20036;-49
2023/01/10 00:16:20;;;;;;;48.97;10.15;;;;;;;3.48;100.00;101165.19;5054954;28;20052;-48
2023/01/10 00:18:45;;;;;;;42.45;9.57;;;;;;;3.48;100.00;101162.63;5053988;28;20087;-49
2023/01/10 00:21:13;;;;;;;48.78;9.15;;;;;;;3.45;100.00;101165.88;5054469;28;20472;-49
2023/01/10 00:23:38;;;;;;;37.38;10.57;;;;;;;3.40;100.00;101169.78;5054339;28;20113;-50
2023/01/10 00:26:03;;;;;;;41.50;10.55;;;;;;;3.39;100.00;101174.00;5053975;28;20105;-49
2023/01/10 00:28:33;;;;;;;39.10;10.98;;;;;;;3.35;100.00;101178.81;5053855;28;20044;-49
2023/01/10 00:31:08;;;;;;;43.25;11.13;;;;;;;3.34;100.00;101182.13;5054442;28;20037;-50
2023/01/10 00:33:37;;;;;;;45.22;12.60;;;;;;;3.26;100.00;101191.81;5053553;28;20487;-49
2023/01/10 00:36:05;;;;;;;39.50;11.15;;;;;;;3.21;100.00;101194.06;5054346;28;20033;-49
2023/01/10 00:38:32;;;;;;;38.83;11.63;;;;;;;3.20;100.00;101199.97;5053929;28;20033;-49
2023/01/10 00:40:58;;;;;;;37.58;11.13;;;;;;;3.20;100.00;101206.72;5053669;28;20021;-50
2023/01/10 00:46:08;;;;;;;43.20;11.38;;;;;;;3.10;100.00;101203.56;5054426;28;20063;-49
2023/01/10 00:48:34;;;;;;;40.20;11.43;;;;;;;3.11;100.00;101212.06;5053113;28;20029;-49
2023/01/10 00:50:59;;;;;;;45.38;11.02;;;;;;;3.10;100.00;101212.88;5054056;28;20464;-49
2023/01/10 00:53:24;;;;;;;48.10;11.73;;;;;;;3.06;100.00;101208.34;5052048;28;20033;-48
2023/01/10 00:55:50;;;;;;;42.28;11.57;;;;;;;3.03;100.00;101205.59;5053624;28;20395;-47
2023/01/10 00:58:16;;;;;;;43.10;11.73;;;;;;;3.03;100.00;101211.56;5054006;28;20103;-50
2023/01/10 01:00:45;;;;;;;54.10;12.30;;;;;;;3.02;100.00;101214.03;5053060;28;20032;-47
2023/01/10 01:03:11;;;;;;;49.10;12.02;;;;;;;3.06;100.00;101215.97;5054068;28;20082;-49
2023/01/10 01:05:43;;;;;;;39.50;10.75;;;;;;;3.08;100.00;101214.44;5052287;28;20033;-49
2023/01/10 01:08:14;;;;;;;45.20;11.52;;;;;;;3.10;100.00;101226.50;5053323;28;20067;-50
2023/01/10 01:10:39;;;;;;;46.17;10.70;;;;;;;3.10;100.00;101223.94;5053322;28;20044;-50
2023/01/10 01:13:06;;;;;;;48.90;11.77;;;;;;;3.08;100.00;101237.34;5053636;28;20067;-47
2023/01/10 01:15:36;;;;;;;56.60;11.93;;;;;;;3.07;100.00;101243.22;5052866;28;20029;-48
2023/01/10 01:18:02;;;;;;;43.05;10.73;;;;;;;3.07;100.00;101244.13;5053332;28;20029;-47
2023/01/10 01:20:28;;;;;;;44.65;11.85;;;;;;;3.07;100.00;101251.75;5053218;28;20025;-45
2023/01/10 01:22:53;;;;;;;48.75;11.30;;;;;;;3.13;100.00;101243.63;5053164;28;20029;-50
2023/01/10 01:25:18;;;;;;;61.35;12.23;;;;;;;3.18;100.00;101259.22;5053383;28;20043;-50
2023/01/10 01:27:44;;;;;;;46.15;11.15;;;;;;;3.17;100.00;101250.69;5053003;28;20024;-50
2023/01/10 01:30:10;;;;;;;56.88;11.70;;;;;;;3.18;100.00;101265.19;5052950;28;20094;-48
2023/01/10 01:32:36;;;;;;;57.78;11.95;;;;;;;3.15;100.00;101264.09;5052717;28;20078;-50
2023/01/10 01:35:01;;;;;;;52.50;11.73;;;;;;;3.15;100.00;101267.56;5053297;28;20021;-49
2023/01/10 01:37:26;;;;;;;49.58;11.30;;;;;;;3.13;100.00;101258.91;5052657;28;20037;-48
2023/01/10 01:39:52;;;;;;;43.80;10.95;;;;;;;3.11;100.00;101270.66;5052844;28;20079;-49
2023/01/10 01:42:24;;;;;;;53.55;11.45;;;;;;;3.15;100.00;101272.66;5053553;28;20029;-50
2023/01/10 01:45:08;;;;;;;46.25;10.85;;;;;;;3.17;100.00;101275.28;5052103;28;20885;-48
2023/01/10 01:47:46;;;;;;;49.05;12.52;;;;;;;3.25;100.00;101295.41;5052744;28;20035;-47
2023/01/10 01:50:19;;;;;;;45.25;11.35;;;;;;;3.31;100.00;101278.75;5052655;28;20037;-50
2023/01/10 01:52:47;;;;;;;57.47;11.98;;;;;;;3.35;100.00;101275.63;5052416;28;20064;-49
2023/01/10 01:55:13;;;;;;;51.13;11.68;;;;;;;3.39;100.00;101282.69;5052897;28;20380;-49
2023/01/10 01:57:38;;;;;;;48.80;11.80;;;;;;;3.39;100.00;101291.19;5052202;28;20472;-49
2023/01/10 02:00:04;;;;;;;55.08;12.77;;;;;;;3.45;100.00;101296.69;5052547;28;20056;-47
2023/01/10 02:02:45;;;;;;;45.85;12.38;;;;;;;3.47;100.00;101289.16;5052808;28;20028;-48
2023/01/10 02:05:14;;;;;;;48.88;12.98;;;;;;;3.48;100.00;101293.47;5052259;28;20063;-46
2023/01/10 02:07:42;;;;;;;54.80;13.73;;;;;;;3.48;100.00;101293.47;5052410;28;20099;-49
2023/01/10 02:10:35;;;;;;;49.72;14.13;;;;;;;3.49;100.00;101299.47;5052721;28;20388;-49
2023/01/10 02:13:06;;;;;;;53.60;14.88;;;;;;;3.49;100.00;101309.66;5052181;28;20159;-49
2023/01/10 02:15:31;;;;;;;67.53;15.30;;;;;;;3.53;100.00;101301.44;5053506;28;20028;-49
2023/01/10 02:17:58;;;;;;;58.17;14.70;;;;;;;3.54;100.00;101309.16;5058866;28;20025;-49
2023/01/10 02:20:24;;;;;;;61.63;16.42;;;;;;;3.59;100.00;101310.34;5059274;28;20021;-48
2023/01/10 02:23:17;;;;;;;52.72;15.43;;;;;;;3.62;100.00;101313.09;5058984;28;20078;-49
2023/01/10 02:25:59;;;;;;;65.45;16.08;;;;;;;3.65;100.00;101311.53;5058791;28;20089;-48
2023/01/10 02:28:42;;;;;;;67.32;16.88;;;;;;;3.65;100.00;101304.75;5059213;28;20025;-49
2023/01/10 02:31:29;;;;;;;60.72;15.63;;;;;;;3.68;100.00;101307.53;5059294;28;20094;-49
2023/01/10 02:34:05;;;;;;;59.97;15.90;;;;;;;3.66;100.00;101313.31;5058690;28;20028;-48
2023/01/10 02:36:43;;;;;;;61.30;16.85;;;;;;;3.62;100.00;101312.22;5058871;28;20503;-50
2023/01/10 02:39:22;;;;;;;47.03;15.73;;;;;;;3.61;100.00;101313.00;5058782;28;20024;-47
2023/01/10 02:41:55;;;;;;;68.13;16.42;;;;;;;3.53;100.00;101317.59;5058551;28;20037;-47
2023/01/10 02:44:42;;;;;;;62.92;16.65;;;;;;;3.55;100.00;101304.94;5059356;28;20033;-50
2023/01/10 02:47:08;;;;;;;53.35;15.85;;;;;;;3.57;100.00;101313.59;5058666;28;20040;-49
2023/01/10 02:49:48;;;;;;;65.38;15.80;;;;;;;3.56;100.00;101311.81;5058815;28;20025;-48
2023/01/10 02:52:20;;;;;;;60.60;17.08;;;;;;;3.50;100.00;101327.59;5058966;28;20032;-49
2023/01/10 02:54:46;;;;;;;58.38;16.42;;;;;;;3.50;100.00;101327.59;5058256;28;20029;-49
2023/01/10 02:57:27;;;;;;;54.67;15.00;;;;;;;3.44;100.00;101324.63;5059166;28;20033;-48
2023/01/10 03:00:01;;;;;;;57.47;15.55;;;;;;;3.41;100.00;101327.84;5058805;28;20435;-46
2023/01/10 03:02:32;;;;;;;52.58;14.95;;;;;;;3.37;100.00;101332.63;5058729;28;20025;-46
2023/01/10 03:05:22;;;;;;;56.65;15.05;;;;;;;3.31;100.00;101335.69;5058737;28;20374;-48
2023/01/10 03:08:08;;;;;;;60.42;14.73;;;;;;;3.30;100.00;101333.91;5058223;28;20033;-50
2023/01/10 03:10:37;;;;;;;56.90;14.52;;;;;;;3.23;100.00;101332.63;5058488;28;20055;-50
2023/01/10 03:13:18;;;;;;;60.13;14.77;;;;;;;3.22;100.00;101345.25;5058818;28;20032;-49
2023/01/10 03:15:46;;;;;;;53.60;14.38;;;;;;;3.22;100.00;101346.13;5057776;28;20393;-48
2023/01/10 03:18:17;;;;;;;69.65;14.40;;;;;;;3.18;100.00;101359.44;5058957;28;20021;-48
2023/01/10 03:20:46;;;;;;;63.72;14.10;;;;;;;3.18;100.00;101374.72;5058543;28;20035;-50
2023/01/10 03:23:14;;;;;;;51.70;13.68;;;;;;;3.19;100.00;101371.41;5058201;28;20037;-49
2023/01/10 03:25:40;;;;;;;;;;;;;;;3.23;100.00;101381.00;5059011;28;20021;-48
2023/01/10 03:28:12;;;;;;;52.13;13.80;;;;;;;3.22;100.00;101384.34;5055603;28;19912;-45
2023/01/10 03:30:47;;;;;;;53.35;13.05;;;;;;;3.23;100.00;101388.66;5055201;28;20033;-47
2023/01/10 03:33:17;;;;;;;64.55;13.85;;;;;;;3.24;100.00;101380.25;5055663;28;20057;-50
2023/01/10 03:36:08;;;;;;;52.20;11.95;;;;;;;3.27;100.00;101384.66;5054680;28;20469;-47
2023/01/10 03:39:02;;;;;;;54.72;12.27;;;;;;;3.26;100.00;101376.13;5055193;28;20049;-47
2023/01/10 03:41:39;;;;;;;54.95;13.20;;;;;;;3.27;100.00;101389.75;5050213;28;20057;-46
2023/01/10 03:47:29;;;;;;;50.22;11.15;;;;;;;3.29;100.00;101396.72;5055621;28;20120;-49
2023/01/10 03:49:59;;;;;;;57.20;11.10;;;;;;;3.32;100.00;101397.69;5054762;28;20047;-49
2023/01/10 03:52:25;;;;;;;58.17;10.35;;;;;;;3.34;100.00;101396.16;5054946;28;20099;-49
2023/01/10 03:54:50;;;;;;;54.13;11.73;;;;;;;3.37;100.00;101406.53;5054902;28;20105;-49
2023/01/10 03:57:18;;;;;;;65.93;12.00;;;;;;;3.38;100.00;101403.22;5054782;28;20448;-47
2023/01/10 03:59:44;;;;;;;67.80;12.82;;;;;;;3.40;100.00;101411.84;5054691;28;20068;-49
2023/01/10 04:02:10;;;;;;;60.72;11.63;;;;;;;3.43;100.00;101417.16;5054939;28;20061;-49
2023/01/10 04:04:35;;;;;;;61.70;11.63;;;;;;;3.46;100.00;101419.91;5054027;28;20021;-49
2023/01/10 04:07:01;;;;;;;50.63;11.32;;;;;;;3.45;100.00;101424.09;5054737;28;20109;-50
2023/01/10 04:09:26;;;;;;;56.60;10.57;;;;;;;3.42;100.00;101428.09;5054836;28;20033;-48
2023/01/10 04:11:51;;;;;;;56.42;12.07;;;;;;;3.38;100.00;101437.22;5053904;28;20074;-45
2023/01/10 04:14:16;;;;;;;59.60;10.95;;;;;;;3.37;100.00;101432.00;5054925;28;20025;-49
2023/01/10 04:16:42;;;;;;;62.10;11.13;;;;;;;3.35;100.00;101428.50;5054531;28;20025;-49
2023/01/10 04:19:07;;;;;;;55.30;10.45;;;;;;;3.32;100.00;101435.91;5054148;28;20044;-50
2023/01/10 04:21:32;;;;;;;58.25;11.30;;;;;;;3.30;100.00;101435.81;5054288;28;20051;-49
2023/01/10 04:23:58;;;;;;;54.88;12.13;;;;;;;3.31;100.00;101446.91;5054579;28;20029;-48
2023/01/10 04:26:23;;;;;;;53.30;10.98;;;;;;;3.29;100.00;101449.31;5053920;28;20032;-49
2023/01/10 04:28:48;;;;;;;48.28;9.73;;;;;;;3.25;100.00;101455.88;5054418;28;20410;-47
2023/01/10 04:31:13;;;;;;;63.40;11.82;;;;;;;3.21;100.00;101453.88;5054649;28;20063;-47
2023/01/10 04:33:40;;;;;;;50.47;9.93;;;;;;;3.22;100.00;101453.13;5053282;28;20387;-47
2023/01/10 04:36:05;;;;;;;54.13;10.98;;;;;;;3.20;100.00;101449.59;5054370;28;20120;-50
2023/01/10 04:38:31;;;;;;;62.53;11.02;;;;;;;3.20;100.00;101447.03;5053283;28;20512;-49
2023/01/10 04:40:56;;;;;;;78.75;11.43;;;;;;;3.22;100.00;101440.38;5054275;28;20029;-46
2023/01/10 04:43:23;;;;;;;73.35;10.75;;;;;;;3.22;100.00;101434.41;5054396;28;20127;-50
2023/01/10 04:45:49;;;;;;;64.17;11.10;;;;;;;3.21;100.00;101446.25;5053586;28;20070;-48
2023/01/10 04:48:15;;;;;;;56.35;10.30;;;;;;;3.20;100.00;101441.06;5053808;28;20025;-48
2023/01/10 04:50:40;;;;;;;65.63;11.48;;;;;;;3.22;100.00;101442.91;5053833;28;20025;-48
2023/01/10 04:53:05;;;;;;;65.03;10.80;;;;;;;3.22;100.00;101447.16;5053432;28;20071;-49
2023/01/10 04:55:31;;;;;;;61.33;11.25;;;;;;;3.21;100.00;101453.88;5053671;28;20025;-50
2023/01/10 04:57:56;;;;;;;57.65;11.60;;;;;;;3.21;100.00;101458.97;5054114;28;20032;-46
2023/01/10 05:00:22;;;;;;;73.00;12.77;;;;;;;3.25;100.00;101463.53;5053420;28;20354;-47
2023/01/10 05:02:47;;;;;;;69.05;10.85;;;;;;;3.24;100.00;101461.75;5053392;28;20111;-49
2023/01/10 05:05:13;;;;;;;58.13;10.93;;;;;;;3.21;100.00;101461.53;5053603;28;20041;-49
2023/01/10 05:07:39;;;;;;;61.55;10.65;;;;;;;3.22;100.00;101448.00;5052953;28;20370;-49
2023/01/10 05:10:06;;;;;;;57.95;10.80;;;;;;;3.17;100.00;101451.91;5053646;28;20033;-48
2023/01/10 05:12:31;;;;;;;63.15;11.77;;;;;;;3.13;100.00;101453.34;5053511;28;20036;-50
2023/01/10 05:14:57;;;;;;;60.72;10.90;;;;;;;3.13;100.00;101462.66;5053249;28;20024;-48
2023/01/10 05:17:22;;;;;;;63.65;11.20;;;;;;;3.11;100.00;101474.41;5053462;28;20021;-49
2023/01/10 05:19:47;;;;;;;59.38;10.30;;;;;;;3.11;100.00;101489.69;5053281;28;20048;-49
2023/01/10 05:22:12;;;;;;;65.45;11.25;;;;;;;3.15;100.00;101499.34;5052695;28;20027;-49
2023/01/10 05:24:38;;;;;;;65.40;10.82;;;;;;;3.15;100.00;101512.06;5053126;28;20440;-48
2023/01/10 05:27:03;;;;;;;66.22;11.15;;;;;;;3.13;100.00;101508.50;5053617;28;20068;-49
2023/01/10 05:29:28;;;;;;;63.63;11.02;;;;;;;3.16;100.00;101508.72;5052320;28;20032;-49
2023/01/10 05:31:53;;;;;;;60.13;11.02;;;;;;;3.19;100.00;101508.94;5053303;28;20021;-49
2023/01/10 05:34:19;;;;;;;69.72;10.50;;;;;;;3.22;100.00;101509.16;5053329;28;20104;-48
2023/01/10 05:36:44;;;;;;;65.97;11.05;;;;;;;3.29;100.00;101511.38;5052155;28;20431;-49
2023/01/10 05:39:09;;;;;;;70.00;11.60;;;;;;;3.37;100.00;101513.53;5053401;28;20538;-45
2023/01/10 05:41:35;;;;;;;59.92;11.48;;;;;;;3.38;100.00;101517.88;5053051;28;20031;-50
2023/01/10 05:44:00;;;;;;;68.97;11.70;;;;;;;3.43;100.00;101508.88;5052477;28;20032;-46
2023/01/10 05:46:25;;;;;;;75.60;12.45;;;;;;;3.49;100.00;101503.34;5053158;28;20107;-49
2023/01/10 05:48:52;;;;;;;71.50;11.55;;;;;;;3.51;100.00;101522.16;5052308;28;20029;-48
2023/01/10 05:51:17;;;;;;;73.43;10.80;;;;;;;3.59;100.00;101528.66;5052162;28;20021;-50
2023/01/10 05:53:42;;;;;;;66.20;10.75;;;;;;;3.63;100.00;101534.06;5052514;28;20063;-49
2023/01/10 05:56:09;;;;;;;81.07;12.00;;;;;;;3.67;100.00;101545.38;5052596;28;20025;-50
2023/01/10 05:58:34;;;;;;;68.50;10.52;;;;;;;3.68;100.00;101531.84;5052528;28;20025;-49
2023/01/10 06:00:59;;;;;;;70.78;12.00;;;;;;;3.70;100.00;101535.38;5053000;28;20052;-46
2023/01/10 06:03:25;;;;;;;71.60;11.20;;;;;;;3.72;100.00;101540.56;5052338;28;20032;-48
2023/01/10 06:05:51;;;;;;;64.30;11.90;;;;;;;3.75;100.00;101548.44;5052098;28;20400;-50
2023/01/10 06:08:16;;;;;;;63.38;10.55;;;;;;;3.74;100.00;101541.56;5052988;28;20037;-46
2023/01/10 06:10:42;;;;;;;69.78;10.80;;;;;;;3.68;100.00;101542.06;5052441;28;20013;-46
2023/01/10 06:13:08;;;;;;;69.20;11.73;;;;;;;3.66;100.00;101542.72;5052690;28;20029;-48
2023/01/10 06:15:35;;;;;;;64.65;10.57;;;;;;;3.66;100.00;101547.81;5052526;28;20028;-48
2023/01/10 06:18:00;;;;;;;73.53;11.55;;;;;;;3.66;100.00;101532.53;5052423;28;20021;-48
2023/01/10 06:20:26;;;;;;;70.60;11.50;;;;;;;3.62;100.00;101537.41;5052343;28;20479;-48
2023/01/10 06:22:51;;;;;;;81.20;11.68;;;;;;;3.66;100.00;101548.69;5052525;28;20044;-50
2023/01/10 06:25:17;;;;;;;75.60;11.05;;;;;;;3.67;100.00;101558.13;5052141;28;20037;-48
2023/01/10 06:27:43;;;;;;;75.78;11.57;;;;;;;3.69;100.00;101555.66;5052247;28;20032;-48
2023/01/10 06:30:11;;;;;;;72.63;10.38;;;;;;;3.69;100.00;101558.22;5052777;28;20029;-49
2023/01/10 06:32:36;;;;;;;73.20;10.95;;;;;;;3.70;100.00;101560.88;5051466;28;20025;-48
2023/01/10 06:35:02;;;;;;;74.93;11.85;;;;;;;3.70;100.00;101562.53;5052634;28;20035;-49
2023/01/10 06:37:27;;;;;;;79.53;11.73;;;;;;;3.66;100.00;101558.03;5052305;28;20484;-45
2023/01/10 06:39:52;;;;;;;59.85;10.73;;;;;;;3.65;100.00;101553.69;5051730;28;20027;-47
2023/01/10 06:42:18;;;;;;;73.40;10.73;;;;;;;3.62;100.00;101562.88;5052732;28;20029;-48
2023/01/10 06:44:43;;;;;;;79.00;11.35;;;;;;;3.59;100.00;101556.69;5052185;28;20112;-46
2023/01/10 06:47:08;;;;;;;85.57;12.48;;;;;;;3.54;100.00;101573.31;5051606;28;20060;-48
2023/01/10 06:49:34;;;;;;;78.15;11.48;;;;;;;3.49;100.00;101565.38;5052191;28;20028;-49
2023/01/10 06:51:59;;;;;;;62.20;10.02;;;;;;;3.46;100.00;101580.47;5052231;28;20025;-48
2023/01/10 06:54:24;;;;;;;58.58;10.20;;;;;;;3.40;100.00;101580.91;5051879;28;20107;-48
2023/01/10 06:56:49;;;;;;;73.00;11.32;;;;;;;3.36;100.00;101585.69;5052238;28;20366;-49
2023/01/10 06:59:15;;;;;;;68.93;10.15;;;;;;;3.31;100.00;101582.81;5052049;28;20029;-49
2023/01/10 07:01:40;;;;;;;73.22;10.07;;;;;;;3.24;100.00;101591.69;5051851;28;20100;-49
2023/01/10 07:04:05;;;;;;;74.47;11.93;;;;;;;3.21;100.00;101598.22;5054982;28;20396;-48
2023/01/10 07:06:31;;;;;;;56.78;10.25;;;;;;;3.19;100.00;101603.19;5055051;28;20384;-49
2023/01/10 07:08:57;;;;;;;76.65;11.73;;;;;;;3.18;100.00;101598.88;5055956;28;20124;-48
2023/01/10 07:11:22;;;;;;;75.70;12.23;;;;;;;3.12;100.00;101606.97;5056099;28;20109;-48
2023/01/10 07:13:48;;;;;;;84.45;13.27;;;;;;;3.06;100.00;101624.34;5055083;28;20435;-49
2023/01/10 07:16:15;;;;;;;78.70;12.57;;;;;;;3.07;100.00;101622.69;5055752;28;20025;-49
2023/01/10 07:18:42;;;;;;;76.97;12.52;;;;;;;3.08;100.00;101629.56;5055558;28;20031;-47
2023/01/10 07:21:08;;;;;;;71.60;11.97;;;;;;;3.12;100.00;101629.91;5055421;28;20025;-47
2023/01/10 07:23:35;;;;;;;62.90;10.60;;;;;;;3.16;100.00;101625.00;5055509;28;20108;-49
2023/01/10 07:26:06;;;;;;;68.78;10.75;;;;;;;3.23;100.00;101645.94;5055779;28;20112;-46
2023/01/10 07:28:33;;;;;;;72.93;11.27;;;;;;;3.25;100.00;101646.97;5054611;28;20025;-48
2023/01/10 07:31:00;;;;;;;68.57;10.85;;;;;;;3.29;100.00;101651.50;5055558;28;20025;-49
2023/01/10 07:33:26;;;;;;;72.70;11.20;;;;;;;3.29;100.00;101654.03;5055468;28;20075;-47
2023/01/10 07:35:51;;;;;;;79.07;11.45;;;;;;;3.32;100.00;101660.09;5054326;28;20025;-49
2023/01/10 07:38:16;;;;;;;76.72;12.15;;;;;;;3.34;100.00;101661.13;5055639;28;20040;-49
2023/01/10 07:40:43;;;;;;;66.78;11.05;;;;;;;3.34;100.00;101666.22;5055210;28;20051;-49
2023/01/10 07:43:08;;;;;;;70.45;11.40;;;;;;;3.35;100.00;101668.00;5054642;28;20021;-48
2023/01/10 07:45:34;;;;;;;76.35;11.95;;;;;;;3.36;100.00;101673.19;5055163;28;20036;-50
2023/01/10 07:48:01;;;;;;;65.53;11.10;;;;;;;3.37;100.00;101677.53;5055400;28;20021;-48
2023/01/10 07:50:29;;;;;;;59.10;11.38;;;;;;;3.39;100.00;101680.19;5054747;28;20068;-49
2023/01/10 07:52:54;;;;;;;;;;;;;;;3.45;100.00;101684.03;5055508;28;20457;-48
2023/01/10 07:55:20;;;;;;;73.85;11.48;;;;;;;3.37;100.00;101687.72;5055144;28;20009;-46
2023/01/10 07:57:46;;;;;;;67.78;10.88;;;;;;;3.36;100.00;101683.38;5054445;28;20017;-49
2023/01/10 08:00:12;;;;;;;76.80;12.48;;;;;;;3.34;100.00;101684.06;5055038;28;20021;-49
2023/01/10 08:02:37;;;;;;;64.50;11.45;;;;;;;3.32;100.00;101690.69;5054129;28;20476;-48
2023/01/10 08:05:03;;;;;;;83.85;12.45;;;;;;;3.33;100.00;101689.91;5054765;28;20044;-49
2023/01/10 08:07:29;;;;;;;72.38;12.00;;;;;;;3.34;100.00;101692.56;5054573;28;20037;-49
2023/01/10 08:09:54;;;;;;;78.32;12.98;;;;;;;3.36;100.00;101691.03;5054336;28;20447;-48
2023/01/10 08:12:20;;;;;;;75.63;11.63;;;;;;;3.40;100.00;101687.06;5054646;28;20061;-48
2023/01/10 08:14:45;;;;;;;68.63;10.63;;;;;;;3.42;100.00;101680.38;5054039;28;20029;-46
2023/01/10 08:17:10;;;;;;;66.30;10.02;;;;;;;3.39;100.00;101685.28;5054159;28;20029;-49
2023/01/10 08:19:36;;;;;;;65.45;11.13;;;;;;;3.36;100.00;101691.03;5054373;28;20377;-50
2023/01/10 08:22:02;;;;;;;67.72;10.50;;;;;;;3.35;100.00;101688.38;5054803;28;20124;-49
2023/01/10 08:24:27;;;;;;;60.78;11.77;;;;;;;3.34;100.00;101691.69;5054128;28;20021;-49
2023/01/10 08:26:52;;;;;;;70.25;11.13;;;;;;;3.31;100.00;101689.81;5054479;28;20037;-50
2023/01/10 08:29:18;;;;;;;65.60;11.75;;;;;;;3.28;100.00;101693.03;5054758;28;20025;-49
2023/01/10 08:31:43;;;;;;;65.45;10.63;;;;;;;3.27;100.00;101691.25;5053363;28;20029;-50
2023/01/10 08:34:08;;;;;;;67.80;12.25;;;;;;;3.26;100.00;101694.56;5054692;28;20465;-47
2023/01/10 08:36:34;;;;;;;71.25;11.23;;;;;;;3.23;100.00;101698.56;5054439;28;20053;-49
2023/01/10 08:38:59;;;;;;;67.15;11.63;;;;;;;3.23;100.00;101694.34;5053693;28;20057;-49
2023/01/10 08:41:24;;;;;;;64.35;11.32;;;;;;;3.27;100.00;101685.28;5054152;28;20028;-49
2023/01/10 08:43:50;;;;;;;56.63;10.82;;;;;;;3.27;100.00;101693.78;5053366;28;20021;-45
2023/01/10 08:46:16;;;;;;;75.15;11.35;;;;;;;3.29;100.00;101689.72;5051949;28;20112;-48
2023/01/10 08:48:41;;;;;;;61.70;10.63;;;;;;;3.31;100.00;101687.25;5053400;28;20436;-45
2023/01/10 08:51:08;;;;;;;72.15;11.57;;;;;;;3.32;100.00;101688.13;5053331;28;20029;-46
2023/01/10 08:53:34;;;;;;;68.00;11.65;;;;;;;3.32;100.00;101686.50;5052240;28;20063;-48
2023/01/10 08:55:59;;;;;;;62.65;10.65;;;;;;;3.32;100.00;101686.50;5053913;28;20064;-49
2023/01/10 08:58:24;;;;;;;73.35;11.55;;;;;;;3.33;100.00;101682.28;5053572;28;20061;-48
2023/01/10 09:00:50;;;;;;;70.75;11.82;;;;;;;3.38;100.00;101689.50;5052127;28;20040;-47
2023/01/10 09:03:15;;;;;;;63.25;10.10;;;;;;;3.39;100.00;101685.28;5053837;28;20024;-46
2023/01/10 09:05:40;;;;;;;72.50;10.90;;;;;;;3.42;100.00;101675.28;5053137;28;20041;-47
2023/01/10 09:08:06;;;;;;;62.47;11.32;;;;;;;3.45;100.00;101686.59;5053521;28;20017;-49
2023/01/10 09:10:31;;;;;;;59.10;10.25;;;;;;;3.52;100.00;101684.50;5053418;28;20032;-48
2023/01/10 09:13:00;;;;;;;72.13;10.88;;;;;;;3.54;100.00;101678.72;5053257;28;20055;-49
2023/01/10 09:15:34;;;;;;;61.05;9.98;;;;;;;3.58;100.00;101673.06;5053269;28;20028;-47
2023/01/10 09:18:04;;;;;;;67.10;10.43;;;;;;;3.62;100.00;101672.50;5054295;28;20044;-46
2023/01/10 09:20:32;;;;;;;63.67;10.70;;;;;;;3.66;100.00;101670.19;5052938;28;20132;-47
2023/01/10 09:22:58;;;;;;;66.85;11.02;;;;;;;3.68;100.00;101668.63;5053269;28;20458;-46
2023/01/10 09:25:23;;;;;;;56.00;10.15;;;;;;;3.68;100.00;101673.72;5052745;28;20032;-49
2023/01/10 09:27:59;;;;;;;65.13;10.90;;;;;;;3.66;100.00;101671.06;5052399;28;20185;-49
2023/01/10 09:30:26;;;;;;;69.75;11.10;;;;;;;3.67;100.00;101671.94;5053619;28;20024;-50
2023/01/10 09:32:52;;;;;;;51.58;9.18;;;;;;;3.68;100.00;101673.72;5052898;28;20070;-49
2023/01/10 09:35:17;;;;;;;70.07;11.55;;;;;;;3.69;100.00;101665.28;5052585;28;20070;-48
2023/01/10 09:37:43;;;;;;;52.78;10.05;;;;;;;3.70;100.00;101667.94;5052878;28;20028;-50
2023/01/10 09:40:13;;;;;;;63.83;10.48;;;;;;;3.74;100.00;101674.16;5053238;28;20025;-50
2023/01/10 09:43:20;;;;;;;53.88;10.35;;;;;;;3.79;100.00;101663.47;5052097;28;20393;-49
2023/01/10 09:46:01;;;;;;;56.10;10.75;;;;;;;3.86;100.00;101672.47;5052919;28;20048;-50
2023/01/10 09:48:54;;;;;;;54.42;10.05;;;;;;;3.90;100.00;101673.56;5052649;28;20435;-49
2023/01/10 09:51:34;;;;;;;53.78;9.77;;;;;;;3.94;100.00;101668.78;5053248;28;20029;-46
2023/01/10 09:54:04;;;;;;;55.63;8.88;;;;;;;4.00;100.00;101675.09;5053082;28;20043;-49
2023/01/10 09:56:31;;;;;;;49.38;10.10;;;;;;;4.06;100.00;101672.97;5052114;28;20021;-49
2023/01/10 09:58:59;;;;;;;61.38;10.07;;;;;;;4.11;100.00;101667.41;5052946;28;20086;-50
2023/01/10 10:01:35;;;;;;;55.03;10.13;;;;;;;4.16;100.00;101675.38;5052877;28;20025;-49
2023/01/10 10:04:21;;;;;;;57.38;9.25;;;;;;;4.24;100.00;101668.25;5052303;28;20039;-49
2023/01/10 10:06:50;;;;;;;67.13;10.38;;;;;;;4.25;100.00;101670.03;5052468;28;20055;-50
2023/01/10 10:09:21;;;;;;;57.72;10.05;;;;;;;4.33;100.00;101678.22;5052156;28;20376;-51
2023/01/10 10:11:47;;;;;;;52.75;9.80;;;;;;;4.41;100.00;101677.06;5052145;28;20035;-50
2023/01/10 10:14:24;;;;;;;52.75;9.00;;;;;;;4.48;100.00;101675.78;5052856;28;20112;-49
2023/01/10 10:16:52;;;;;;;;;;;;;;;4.56;100.00;101672.97;5052074;28;20504;-49
2023/01/10 10:19:31;;;;;;;52.72;9.48;;;;;;;4.58;100.00;101661.22;5052805;28;19979;-48
2023/01/10 10:22:20;;;;;;;50.35;8.43;;;;;;;4.63;100.00;101655.53;5052755;28;20029;-49
2023/01/10 10:25:15;;;;;;;60.65;9.68;;;;;;;4.66;100.00;101648.97;5051753;28;20056;-49
2023/01/10 10:28:14;;;;;;;67.45;9.95;;;;;;;4.69;100.00;101645.72;5052285;28;20057;-50
2023/01/10 10:30:50;;;;;;;49.83;8.88;;;;;;;4.72;100.00;101649.34;5051750;28;20432;-50
2023/01/10 10:33:44;;;;;;;52.00;9.68;;;;;;;4.75;100.00;101639.34;5052694;28;20033;-48
2023/01/10 10:37:00;;;;;;;76.20;20.10;;;;;;;4.84;100.00;101638.19;5052661;28;20036;-47
2023/01/10 10:39:54;;;;;;;62.00;12.40;;;;;;;4.85;100.00;101638.25;5033612;28;20484;-47
2023/01/10 10:42:20;;;;;;;91.35;24.80;;;;;;;4.84;100.00;101621.19;5055262;28;20040;-49
2023/01/10 10:44:45;;;;;;;53.83;9.98;;;;;;;4.85;100.00;101620.38;5055691;28;20103;-50
2023/01/10 10:47:22;;;;;;;230.27;73.50;;;;;;;4.90;100.00;101615.59;5056306;28;20120;-46
2023/01/10 10:49:58;;;;;;;91.38;25.42;;;;;;;4.90;100.00;101602.81;5056284;28;20880;-49
2023/01/10 10:52:29;;;;;;;55.05;11.52;;;;;;;4.90;100.00;101608.81;5055663;28;20021;-49
2023/01/10 10:54:54;;;;;;;52.47;10.23;;;;;;;4.98;100.00;101600.75;5056488;28;20029;-51
2023/01/10 10:57:24;;;;;;;53.45;9.23;;;;;;;4.98;100.00;101600.75;5056184;28;20367;-50
2023/01/10 10:59:51;;;;;;;64.40;10.25;;;;;;;5.03;100.00;101594.28;5055315;28;20024;-48
2023/01/10 11:02:24;;;;;;;50.42;9.98;;;;;;;5.07;100.00;101598.78;5056183;28;20078;-50
2023/01/10 11:04:51;;;;;;;62.95;9.75;;;;;;;5.09;100.00;101594.69;5055910;28;20056;-45
2023/01/10 11:07:17;;;;;;;;;;;;;;;5.18;100.00;101590.16;5055878;28;20048;-50
2023/01/10 11:09:50;;;;;;;53.42;10.27;;;;;;;5.16;99.97;101576.38;5055917;28;19920;-47
2023/01/10 11:12:18;;;;;;;61.42;18.50;;;;;;;5.17;100.00;101573.03;5055681;28;20468;-48
2023/01/10 11:14:46;;;;;;;67.28;22.50;;;;;;;5.19;99.68;101578.25;5055667;28;20020;-47
2023/01/10 11:17:20;;;;;;;53.03;12.18;;;;;;;5.23;100.00;101567.44;5055964;28;20032;-47
2023/01/10 11:20:03;;;;;;;83.60;23.60;;;;;;;5.29;100.00;101572.91;5055088;28;20021;-48
2023/01/10 11:22:49;;;;;;;100.75;34.50;;;;;;;5.30;100.00;101566.16;5055363;28;20032;-47
2023/01/10 11:25:18;;;;;;;59.90;16.33;;;;;;;5.27;99.80;101560.03;5055985;28;20029;-47
2023/01/10 11:27:53;;;;;;;55.78;10.02;;;;;;;5.31;99.87;101570.44;5054643;28;20017;-48
2023/01/10 11:30:30;;;;;;;62.63;13.75;;;;;;;5.32;99.81;101564.56;5055621;28;20029;-50